sensor_id;sensor_type;location;lat;lon;timestamp;pressure;altitude;pressure_sealevel;temperature;humidity
3598;BME280;1813;52.016;8.714;2023-02-18T00:01:11;-16261.94;;;-139.71;66.91
3598;BME280;1813;52.016;8.714;2023-02-18T00:03:45;-16261.94;;;-139.71;67.58
3598;BME280;1813;52.016;8.714;2023-02-18T00:06:22;-16261.94;;;-139.71;67.95
3598;BME280;1813;52.016;8.714;2023-02-18T00:08:56;-16261.94;;;-139.71;68.36
3598;BME280;1813;52.016;8.714;2023-02-18T00:11:33;-16261.94;;;-139.71;69.09
3598;BME280;1813;52.016;8.714;2023-02-18T00:14:11;-16261.94;;;-139.71;69.64
3598;BME280;1813;52.016;8.714;2023-02-18T00:16:49;-16261.94;;;-139.71;70.31
3598;BME280;1813;52.016;8.714;2023-02-18T00:19:22;-16261.94;;;-139.71;71.17
3598;BME280;1813;52.016;8.714;2023-02-18T00:21:56;-16261.94;;;-139.71;71.77
3598;BME280;1813;52.016;8.714;2023-02-18T00:24:30;-16261.94;;;-139.71;72.37
3598;BME280;1813;52.016;8.714;2023-02-18T00:27:04;-16261.94;;;-139.71;73.11
3598;BME280;1813;52.016;8.714;2023-02-18T00:29:39;-16261.94;;;-139.71;74.23
3598;BME280;1813;52.016;8.714;2023-02-18T00:32:15;-16261.94;;;-139.71;75.37
3598;BME280;1813;52.016;8.714;2023-02-18T00:34:49;-16261.94;;;-139.71;76.60
3598;BME280;1813;52.016;8.714;2023-02-18T00:37:25;-16261.94;;;-139.71;77.79
3598;BME280;1813;52.016;8.714;2023-02-18T00:39:58;-16261.94;;;-139.71;78.74
3598;BME280;1813;52.016;8.714;2023-02-18T00:42:34;-16261.94;;;-139.71;79.57
3598;BME280;1813;52.016;8.714;2023-02-18T00:45:08;-16261.94;;;-139.71;80.32
3598;BME280;1813;52.016;8.714;2023-02-18T00:47:45;-16261.94;;;-139.71;80.68
3598;BME280;1813;52.016;8.714;2023-02-18T00:50:18;-16261.94;;;-139.71;81.67
3598;BME280;1813;52.016;8.714;2023-02-18T00:52:52;-16261.94;;;-139.71;82.26
3598;BME280;1813;52.016;8.714;2023-02-18T00:55:30;-16261.94;;;-139.71;82.85
3598;BME280;1813;52.016;8.714;2023-02-18T00:58:04;-16261.94;;;-139.71;83.42
3598;BME280;1813;52.016;8.714;2023-02-18T01:00:38;-16261.94;;;-139.71;83.91
3598;BME280;1813;52.016;8.714;2023-02-18T01:03:15;-16261.94;;;-139.71;84.14
3598;BME280;1813;52.016;8.714;2023-02-18T01:05:50;-16261.94;;;-139.71;84.66
3598;BME280;1813;52.016;8.714;2023-02-18T01:08:23;-16261.94;;;-139.71;85.04
3598;BME280;1813;52.016;8.714;2023-02-18T01:10:58;-16261.94;;;-139.71;85.29
3598;BME280;1813;52.016;8.714;2023-02-18T01:13:32;-16261.94;;;-139.71;85.26
3598;BME280;1813;52.016;8.714;2023-02-18T01:16:06;-16261.94;;;-139.71;85.32
3598;BME280;1813;52.016;8.714;2023-02-18T01:18:43;-16261.94;;;-139.71;85.59
3598;BME280;1813;52.016;8.714;2023-02-18T01:21:17;-16261.94;;;-139.71;85.64
3598;BME280;1813;52.016;8.714;2023-02-18T01:23:51;-16261.94;;;-139.71;85.66
3598;BME280;1813;52.016;8.714;2023-02-18T01:26:25;-16261.94;;;-139.71;85.73
3598;BME280;1813;52.016;8.714;2023-02-18T01:28:59;-16261.94;;;-139.71;85.59
3598;BME280;1813;52.016;8.714;2023-02-18T01:31:32;-16261.94;;;-139.71;85.73
3598;BME280;1813;52.016;8.714;2023-02-18T01:34:12;-16261.94;;;-139.71;85.72
3598;BME280;1813;52.016;8.714;2023-02-18T01:36:46;-16261.94;;;-139.71;85.85
3598;BME280;1813;52.016;8.714;2023-02-18T01:39:23;-16261.94;;;-139.71;85.74
3598;BME280;1813;52.016;8.714;2023-02-18T01:41:58;-16261.94;;;-139.71;85.93
3598;BME280;1813;52.016;8.714;2023-02-18T01:44:33;-16261.94;;;-139.71;86.10
3598;BME280;1813;52.016;8.714;2023-02-18T01:47:07;-16261.94;;;-139.71;86.34
3598;BME280;1813;52.016;8.714;2023-02-18T01:49:45;-16261.94;;;-139.71;86.42
3598;BME280;1813;52.016;8.714;2023-02-18T01:52:23;-16261.94;;;-139.71;86.40
3598;BME280;1813;52.016;8.714;2023-02-18T01:55:02;-16261.94;;;-139.71;86.38
3598;BME280;1813;52.016;8.714;2023-02-18T01:57:37;-16261.94;;;-139.71;86.29
3598;BME280;1813;52.016;8.714;2023-02-18T02:00:14;-16261.94;;;-139.71;86.40
3598;BME280;1813;52.016;8.714;2023-02-18T02:02:52;-16261.94;;;-139.71;86.22
3598;BME280;1813;52.016;8.714;2023-02-18T02:05:30;-16261.94;;;-139.71;86.32
3598;BME280;1813;52.016;8.714;2023-02-18T02:08:05;-16261.94;;;-139.71;86.20
3598;BME280;1813;52.016;8.714;2023-02-18T02:10:49;-16261.94;;;-139.71;86.34
3598;BME280;1813;52.016;8.714;2023-02-18T02:13:36;-16261.94;;;-139.71;86.29
3598;BME280;1813;52.016;8.714;2023-02-18T02:16:20;-16261.94;;;-139.71;86.42
3598;BME280;1813;52.016;8.714;2023-02-18T02:25:16;-16261.94;;;-139.71;87.06
3598;BME280;1813;52.016;8.714;2023-02-18T02:28:21;-16261.94;;;-139.71;87.23
3598;BME280;1813;52.016;8.714;2023-02-18T02:31:19;-16261.94;;;-139.71;87.63
3598;BME280;1813;52.016;8.714;2023-02-18T02:37:14;-16261.94;;;-139.71;88.28
3598;BME280;1813;52.016;8.714;2023-02-18T02:39:59;-16261.94;;;-139.71;88.33
3598;BME280;1813;52.016;8.714;2023-02-18T02:42:45;-16261.94;;;-139.71;88.28
3598;BME280;1813;52.016;8.714;2023-02-18T02:45:32;-16261.94;;;-139.71;88.55
3598;BME280;1813;52.016;8.714;2023-02-18T02:48:16;-16261.94;;;-139.71;88.83
3598;BME280;1813;52.016;8.714;2023-02-18T02:51:01;-16261.94;;;-139.71;88.85
3598;BME280;1813;52.016;8.714;2023-02-18T02:53:42;-16261.94;;;-139.71;88.85
3598;BME280;1813;52.016;8.714;2023-02-18T02:56:18;-16261.94;;;-139.71;88.90
3598;BME280;1813;52.016;8.714;2023-02-18T02:58:59;-16261.94;;;-139.71;89.10
3598;BME280;1813;52.016;8.714;2023-02-18T03:01:50;-16261.94;;;-139.71;89.15
3598;BME280;1813;52.016;8.714;2023-02-18T03:04:39;-16261.94;;;-139.71;89.18
3598;BME280;1813;52.016;8.714;2023-02-18T03:10:45;-16261.94;;;-139.71;89.07
3598;BME280;1813;52.016;8.714;2023-02-18T03:13:28;-16261.94;;;-139.71;89.15
3598;BME280;1813;52.016;8.714;2023-02-18T03:16:13;-16261.94;;;-139.71;89.16
3598;BME280;1813;52.016;8.714;2023-02-18T03:18:58;-16261.94;;;-139.71;89.23
3598;BME280;1813;52.016;8.714;2023-02-18T03:21:38;-16261.94;;;-139.71;89.08
3598;BME280;1813;52.016;8.714;2023-02-18T03:24:18;-16261.94;;;-139.71;88.96
3598;BME280;1813;52.016;8.714;2023-02-18T03:26:59;-16261.94;;;-139.71;88.83
3598;BME280;1813;52.016;8.714;2023-02-18T03:29:35;-16261.94;;;-139.71;88.94
3598;BME280;1813;52.016;8.714;2023-02-18T03:32:12;-16261.94;;;-139.71;88.97
3598;BME280;1813;52.016;8.714;2023-02-18T03:34:59;-16261.94;;;-139.71;88.88
3598;BME280;1813;52.016;8.714;2023-02-18T03:37:39;-16261.94;;;-139.71;88.90
3598;BME280;1813;52.016;8.714;2023-02-18T03:40:15;-16261.94;;;-139.71;88.97
3598;BME280;1813;52.016;8.714;2023-02-18T03:42:53;-16261.94;;;-139.71;88.93
3598;BME280;1813;52.016;8.714;2023-02-18T03:45:27;-16261.94;;;-139.71;88.91
3598;BME280;1813;52.016;8.714;2023-02-18T03:48:02;-16261.94;;;-139.71;88.98
3598;BME280;1813;52.016;8.714;2023-02-18T03:50:36;-16261.94;;;-139.71;89.05
3598;BME280;1813;52.016;8.714;2023-02-18T03:53:10;-16261.94;;;-139.71;89.30
3598;BME280;1813;52.016;8.714;2023-02-18T03:55:46;-16261.94;;;-139.71;89.31
3598;BME280;1813;52.016;8.714;2023-02-18T03:58:22;-16261.94;;;-139.71;89.54
3598;BME280;1813;52.016;8.714;2023-02-18T04:00:56;-16261.94;;;-139.71;89.87
3598;BME280;1813;52.016;8.714;2023-02-18T04:03:30;-16261.94;;;-139.71;89.98
3598;BME280;1813;52.016;8.714;2023-02-18T04:06:04;-16261.94;;;-139.71;90.16
3598;BME280;1813;52.016;8.714;2023-02-18T04:08:38;-16261.94;;;-139.71;90.16
3598;BME280;1813;52.016;8.714;2023-02-18T04:11:14;-16261.94;;;-139.71;90.24
3598;BME280;1813;52.016;8.714;2023-02-18T04:13:50;-16261.94;;;-139.71;90.60
3598;BME280;1813;52.016;8.714;2023-02-18T04:16:24;-16261.94;;;-139.71;90.84
3598;BME280;1813;52.016;8.714;2023-02-18T04:18:58;-16261.94;;;-139.71;90.86
3598;BME280;1813;52.016;8.714;2023-02-18T04:21:32;-16261.94;;;-139.71;91.04
3598;BME280;1813;52.016;8.714;2023-02-18T04:24:06;-16261.94;;;-139.71;91.17
3598;BME280;1813;52.016;8.714;2023-02-18T04:26:41;-16261.94;;;-139.71;91.47
3598;BME280;1813;52.016;8.714;2023-02-18T04:29:17;-16261.94;;;-139.71;91.53
3598;BME280;1813;52.016;8.714;2023-02-18T04:31:51;-16261.94;;;-139.71;91.87
3598;BME280;1813;52.016;8.714;2023-02-18T04:34:25;-16261.94;;;-139.71;92.02
3598;BME280;1813;52.016;8.714;2023-02-18T04:36:58;-16261.94;;;-139.71;92.25
3598;BME280;1813;52.016;8.714;2023-02-18T04:39:32;-16261.94;;;-139.71;92.59
3598;BME280;1813;52.016;8.714;2023-02-18T04:42:06;-16261.94;;;-139.71;92.44
3598;BME280;1813;52.016;8.714;2023-02-18T04:44:42;-16261.94;;;-139.71;92.73
3598;BME280;1813;52.016;8.714;2023-02-18T04:47:16;-16261.94;;;-139.71;92.93
3598;BME280;1813;52.016;8.714;2023-02-18T04:49:50;-16261.94;;;-139.71;93.02
3598;BME280;1813;52.016;8.714;2023-02-18T04:52:25;-16261.94;;;-139.71;93.06
3598;BME280;1813;52.016;8.714;2023-02-18T04:54:59;-16261.94;;;-139.71;93.13
3598;BME280;1813;52.016;8.714;2023-02-18T04:57:33;-16261.94;;;-139.71;93.25
3598;BME280;1813;52.016;8.714;2023-02-18T05:00:14;-16261.94;;;-139.71;93.27
3598;BME280;1813;52.016;8.714;2023-02-18T05:02:48;-16261.94;;;-139.71;93.61
3598;BME280;1813;52.016;8.714;2023-02-18T05:05:22;-16261.94;;;-139.71;93.74
3598;BME280;1813;52.016;8.714;2023-02-18T05:07:56;-16261.94;;;-139.71;93.93
3598;BME280;1813;52.016;8.714;2023-02-18T05:10:29;-16261.94;;;-139.71;94.04
3598;BME280;1813;52.016;8.714;2023-02-18T05:13:03;-16261.94;;;-139.71;94.08
3598;BME280;1813;52.016;8.714;2023-02-18T05:15:40;-16261.94;;;-139.71;94.05
3598;BME280;1813;52.016;8.714;2023-02-18T05:18:14;-16261.94;;;-139.71;94.17
3598;BME280;1813;52.016;8.714;2023-02-18T05:20:47;-16261.94;;;-139.71;94.18
3598;BME280;1813;52.016;8.714;2023-02-18T05:23:21;-16261.94;;;-139.71;94.36
3598;BME280;1813;52.016;8.714;2023-02-18T05:25:55;-16261.94;;;-139.71;94.53
3598;BME280;1813;52.016;8.714;2023-02-18T05:28:29;-16261.94;;;-139.71;94.48
3598;BME280;1813;52.016;8.714;2023-02-18T05:31:05;-16261.94;;;-139.71;94.60
3598;BME280;1813;52.016;8.714;2023-02-18T05:33:39;-16261.94;;;-139.71;94.43
3598;BME280;1813;52.016;8.714;2023-02-18T05:36:13;-16261.94;;;-139.71;94.34
3598;BME280;1813;52.016;8.714;2023-02-18T05:38:47;-16261.94;;;-139.71;94.23
3598;BME280;1813;52.016;8.714;2023-02-18T05:41:21;-16261.94;;;-139.71;94.42
3598;BME280;1813;52.016;8.714;2023-02-18T05:43:55;-16261.94;;;-139.71;94.50
3598;BME280;1813;52.016;8.714;2023-02-18T05:46:44;-16261.94;;;-139.71;94.51
3598;BME280;1813;52.016;8.714;2023-02-18T05:49:18;-16261.94;;;-139.71;94.39
3598;BME280;1813;52.016;8.714;2023-02-18T05:51:52;-16261.94;;;-139.71;94.32
3598;BME280;1813;52.016;8.714;2023-02-18T05:54:26;-16261.94;;;-139.71;94.11
3598;BME280;1813;52.016;8.714;2023-02-18T05:57:00;-16261.94;;;-139.71;94.12
3598;BME280;1813;52.016;8.714;2023-02-18T05:59:34;-16261.94;;;-139.71;94.42
3598;BME280;1813;52.016;8.714;2023-02-18T06:02:13;-16261.94;;;-139.71;94.31
3598;BME280;1813;52.016;8.714;2023-02-18T06:04:47;-16261.94;;;-139.71;94.15
3598;BME280;1813;52.016;8.714;2023-02-18T06:07:22;-16261.94;;;-139.71;94.26
3598;BME280;1813;52.016;8.714;2023-02-18T06:09:56;-16261.94;;;-139.71;94.35
3598;BME280;1813;52.016;8.714;2023-02-18T06:12:30;-16261.94;;;-139.71;94.27
3598;BME280;1813;52.016;8.714;2023-02-18T06:15:04;-16261.94;;;-139.71;94.25
3598;BME280;1813;52.016;8.714;2023-02-18T06:17:41;-16261.94;;;-139.71;94.23
3598;BME280;1813;52.016;8.714;2023-02-18T06:20:15;-16261.94;;;-139.71;94.08
3598;BME280;1813;52.016;8.714;2023-02-18T06:22:48;-16261.94;;;-139.71;94.08
3598;BME280;1813;52.016;8.714;2023-02-18T06:25:22;-16261.94;;;-139.71;94.04
3598;BME280;1813;52.016;8.714;2023-02-18T06:27:56;-16261.94;;;-139.71;94.05
3598;BME280;1813;52.016;8.714;2023-02-18T06:30:30;-16261.94;;;-139.71;94.06
3598;BME280;1813;52.016;8.714;2023-02-18T06:33:07;-16261.94;;;-139.71;93.82
3598;BME280;1813;52.016;8.714;2023-02-18T06:35:41;-16261.94;;;-139.71;93.90
3598;BME280;1813;52.016;8.714;2023-02-18T06:38:20;-16261.94;;;-139.71;93.94
3598;BME280;1813;52.016;8.714;2023-02-18T06:40:54;-16261.94;;;-139.71;93.94
3598;BME280;1813;52.016;8.714;2023-02-18T06:43:28;-16261.94;;;-139.71;94.05
3598;BME280;1813;52.016;8.714;2023-02-18T06:46:02;-16261.94;;;-139.71;94.22
3598;BME280;1813;52.016;8.714;2023-02-18T06:48:39;-16261.94;;;-139.71;94.12
3598;BME280;1813;52.016;8.714;2023-02-18T06:51:13;-16261.94;;;-139.71;94.13
3598;BME280;1813;52.016;8.714;2023-02-18T06:53:49;-16261.94;;;-139.71;94.33
3598;BME280;1813;52.016;8.714;2023-02-18T06:56:22;-16261.94;;;-139.71;94.31
3598;BME280;1813;52.016;8.714;2023-02-18T06:58:57;-16261.94;;;-139.71;94.35
3598;BME280;1813;52.016;8.714;2023-02-18T07:01:31;-16261.94;;;-139.71;94.40
3598;BME280;1813;52.016;8.714;2023-02-18T07:04:07;-16261.94;;;-139.71;94.33
3598;BME280;1813;52.016;8.714;2023-02-18T07:06:41;-16261.94;;;-139.71;94.46
3598;BME280;1813;52.016;8.714;2023-02-18T07:09:15;-16261.94;;;-139.71;94.67
3598;BME280;1813;52.016;8.714;2023-02-18T07:11:49;-16261.94;;;-139.71;94.60
3598;BME280;1813;52.016;8.714;2023-02-18T07:14:23;-16261.94;;;-139.71;94.71
3598;BME280;1813;52.016;8.714;2023-02-18T07:16:58;-16261.94;;;-139.71;94.58
3598;BME280;1813;52.016;8.714;2023-02-18T07:19:34;-16261.94;;;-139.71;94.49
3598;BME280;1813;52.016;8.714;2023-02-18T07:22:08;-16261.94;;;-139.71;94.73
3598;BME280;1813;52.016;8.714;2023-02-18T07:24:42;-16261.94;;;-139.71;94.77
3598;BME280;1813;52.016;8.714;2023-02-18T07:27:16;-16261.94;;;-139.71;94.65
3598;BME280;1813;52.016;8.714;2023-02-18T07:29:50;-16261.94;;;-139.71;94.48
3598;BME280;1813;52.016;8.714;2023-02-18T07:32:24;-16261.94;;;-139.71;94.40
3598;BME280;1813;52.016;8.714;2023-02-18T07:35:01;-16261.94;;;-139.71;94.40
3598;BME280;1813;52.016;8.714;2023-02-18T07:37:35;-16261.94;;;-139.71;94.30
3598;BME280;1813;52.016;8.714;2023-02-18T07:40:10;-16261.94;;;-139.71;94.32
3598;BME280;1813;52.016;8.714;2023-02-18T07:42:44;-16261.94;;;-139.71;94.25
3598;BME280;1813;52.016;8.714;2023-02-18T07:45:18;-16261.94;;;-139.71;94.04
3598;BME280;1813;52.016;8.714;2023-02-18T07:47:54;-16261.94;;;-139.71;94.12
3598;BME280;1813;52.016;8.714;2023-02-18T07:50:31;-16261.94;;;-139.71;94.28
3598;BME280;1813;52.016;8.714;2023-02-18T07:53:06;-16261.94;;;-139.71;94.35
3598;BME280;1813;52.016;8.714;2023-02-18T07:55:42;-16261.94;;;-139.71;94.33
3598;BME280;1813;52.016;8.714;2023-02-18T07:58:24;-16261.94;;;-139.71;94.15
3598;BME280;1813;52.016;8.714;2023-02-18T08:00:58;-16261.94;;;-139.71;94.36
3598;BME280;1813;52.016;8.714;2023-02-18T08:03:32;-16261.94;;;-139.71;94.15
3598;BME280;1813;52.016;8.714;2023-02-18T08:06:18;-16261.94;;;-139.71;94.03
3598;BME280;1813;52.016;8.714;2023-02-18T08:08:52;-16261.94;;;-139.71;93.83
3598;BME280;1813;52.016;8.714;2023-02-18T08:11:26;-16261.94;;;-139.71;93.64
3598;BME280;1813;52.016;8.714;2023-02-18T08:14:00;-16261.94;;;-139.71;93.57
3598;BME280;1813;52.016;8.714;2023-02-18T08:16:34;-16261.94;;;-139.71;93.60
3598;BME280;1813;52.016;8.714;2023-02-18T08:19:09;-16261.94;;;-139.71;93.74
3598;BME280;1813;52.016;8.714;2023-02-18T08:21:50;-16261.94;;;-139.71;93.64
3598;BME280;1813;52.016;8.714;2023-02-18T08:24:23;-16261.94;;;-139.71;93.66
3598;BME280;1813;52.016;8.714;2023-02-18T08:26:57;-16261.94;;;-139.71;93.72
3598;BME280;1813;52.016;8.714;2023-02-18T08:29:31;-16261.94;;;-139.71;93.64
3598;BME280;1813;52.016;8.714;2023-02-18T08:32:05;-16261.94;;;-139.71;93.59
3598;BME280;1813;52.016;8.714;2023-02-18T08:34:39;-16261.94;;;-139.71;93.42
3598;BME280;1813;52.016;8.714;2023-02-18T08:37:15;-16261.94;;;-139.71;93.52
3598;BME280;1813;52.016;8.714;2023-02-18T08:39:49;-16261.94;;;-139.71;93.56
3598;BME280;1813;52.016;8.714;2023-02-18T08:42:23;-16261.94;;;-139.71;93.46
3598;BME280;1813;52.016;8.714;2023-02-18T08:44:57;-16261.94;;;-139.71;93.60
3598;BME280;1813;52.016;8.714;2023-02-18T08:47:30;-16261.94;;;-139.71;93.52
3598;BME280;1813;52.016;8.714;2023-02-18T08:50:05;-16261.94;;;-139.71;93.26
3598;BME280;1813;52.016;8.714;2023-02-18T08:52:42;-16261.94;;;-139.71;93.36
3598;BME280;1813;52.016;8.714;2023-02-18T08:55:16;-16261.94;;;-139.71;93.21
3598;BME280;1813;52.016;8.714;2023-02-18T08:57:51;-16261.94;;;-139.71;93.26
3598;BME280;1813;52.016;8.714;2023-02-18T09:00:24;-16261.94;;;-139.71;93.16
3598;BME280;1813;52.016;8.714;2023-02-18T09:02:58;-16261.94;;;-139.71;92.91
3598;BME280;1813;52.016;8.714;2023-02-18T09:05:32;-16261.94;;;-139.71;93.15
3598;BME280;1813;52.016;8.714;2023-02-18T09:08:09;-16261.94;;;-139.71;92.49
3598;BME280;1813;52.016;8.714;2023-02-18T09:10:43;-16261.94;;;-139.71;92.39
3598;BME280;1813;52.016;8.714;2023-02-18T09:13:17;-16261.94;;;-139.71;92.49
3598;BME280;1813;52.016;8.714;2023-02-18T09:15:59;-16261.94;;;-139.71;92.32
3598;BME280;1813;52.016;8.714;2023-02-18T09:18:33;-16261.94;;;-139.71;92.06
3598;BME280;1813;52.016;8.714;2023-02-18T09:21:08;-16261.94;;;-139.71;92.51
3598;BME280;1813;52.016;8.714;2023-02-18T09:23:46;-16261.94;;;-139.71;92.30
3598;BME280;1813;52.016;8.714;2023-02-18T09:26:20;-16261.94;;;-139.71;92.13
3598;BME280;1813;52.016;8.714;2023-02-18T09:28:55;-16261.94;;;-139.71;92.17
3598;BME280;1813;52.016;8.714;2023-02-18T09:31:30;-16261.94;;;-139.71;92.36
3598;BME280;1813;52.016;8.714;2023-02-18T09:34:04;-16261.94;;;-139.71;92.19
3598;BME280;1813;52.016;8.714;2023-02-18T09:36:41;-16261.94;;;-139.71;91.83
3598;BME280;1813;52.016;8.714;2023-02-18T09:39:18;-16261.94;;;-139.71;91.69
3598;BME280;1813;52.016;8.714;2023-02-18T09:41:53;-16261.94;;;-139.71;91.17
3598;BME280;1813;52.016;8.714;2023-02-18T09:44:31;-16261.94;;;-139.71;91.09
3598;BME280;1813;52.016;8.714;2023-02-18T09:47:11;-16261.94;;;-139.71;90.63
3598;BME280;1813;52.016;8.714;2023-02-18T09:49:48;-16261.94;;;-139.71;90.29
3598;BME280;1813;52.016;8.714;2023-02-18T09:52:27;-16261.94;;;-139.71;90.34
3598;BME280;1813;52.016;8.714;2023-02-18T09:55:15;-16261.94;;;-139.71;90.10
3598;BME280;1813;52.016;8.714;2023-02-18T09:57:51;-16261.94;;;-139.71;90.06
3598;BME280;1813;52.016;8.714;2023-02-18T10:00:29;-16261.94;;;-139.71;90.25
3598;BME280;1813;52.016;8.714;2023-02-18T10:03:07;-16261.94;;;-139.71;90.14
3598;BME280;1813;52.016;8.714;2023-02-18T10:05:52;-16261.94;;;-139.71;89.95
3598;BME280;1813;52.016;8.714;2023-02-18T10:08:29;-16261.94;;;-139.71;90.24
3598;BME280;1813;52.016;8.714;2023-02-18T10:11:10;-16261.94;;;-139.71;90.49
3598;BME280;1813;52.016;8.714;2023-02-18T10:13:46;-16261.94;;;-139.71;90.58
3598;BME280;1813;52.016;8.714;2023-02-18T10:16:21;-16261.94;;;-139.71;90.84
3598;BME280;1813;52.016;8.714;2023-02-18T10:18:57;-16261.94;;;-139.71;91.05
3598;BME280;1813;52.016;8.714;2023-02-18T10:21:33;-16261.94;;;-139.71;91.16
3598;BME280;1813;52.016;8.714;2023-02-18T10:24:13;-16261.94;;;-139.71;91.14
3598;BME280;1813;52.016;8.714;2023-02-18T10:26:53;-16261.94;;;-139.71;90.83
3598;BME280;1813;52.016;8.714;2023-02-18T10:29:27;-16261.94;;;-139.71;90.96
3598;BME280;1813;52.016;8.714;2023-02-18T10:32:06;-16261.94;;;-139.71;90.79
3598;BME280;1813;52.016;8.714;2023-02-18T10:34:47;-16261.94;;;-139.71;90.76
3598;BME280;1813;52.016;8.714;2023-02-18T10:37:31;-16261.94;;;-139.71;90.64
3598;BME280;1813;52.016;8.714;2023-02-18T10:40:13;-16261.94;;;-139.71;90.74
3598;BME280;1813;52.016;8.714;2023-02-18T10:43:02;-16261.94;;;-139.71;90.26
3598;BME280;1813;52.016;8.714;2023-02-18T10:45:45;-16261.94;;;-139.71;90.22
3598;BME280;1813;52.016;8.714;2023-02-18T10:48:34;-16261.94;;;-139.71;90.04
3598;BME280;1813;52.016;8.714;2023-02-18T10:51:17;-16261.94;;;-139.71;90.19
3598;BME280;1813;52.016;8.714;2023-02-18T10:53:52;-16261.94;;;-139.71;89.97
3598;BME280;1813;52.016;8.714;2023-02-18T10:56:33;-16261.94;;;-139.71;89.66
3598;BME280;1813;52.016;8.714;2023-02-18T10:59:18;-16261.94;;;-139.71;89.75
3598;BME280;1813;52.016;8.714;2023-02-18T11:01:54;-16261.94;;;-139.71;89.94
3598;BME280;1813;52.016;8.714;2023-02-18T11:04:34;-16261.94;;;-139.71;89.86
3598;BME280;1813;52.016;8.714;2023-02-18T11:07:12;-16261.94;;;-139.71;89.82
3598;BME280;1813;52.016;8.714;2023-02-18T11:09:48;-16261.94;;;-139.71;89.98
3598;BME280;1813;52.016;8.714;2023-02-18T11:12:25;-16261.94;;;-139.71;89.69
3598;BME280;1813;52.016;8.714;2023-02-18T11:15:16;-16261.94;;;-139.71;89.76
3598;BME280;1813;52.016;8.714;2023-02-18T11:17:51;-16261.94;;;-139.71;89.76
3598;BME280;1813;52.016;8.714;2023-02-18T11:20:30;-16261.94;;;-139.71;89.96
3598;BME280;1813;52.016;8.714;2023-02-18T11:23:19;-16261.94;;;-139.71;89.99
3598;BME280;1813;52.016;8.714;2023-02-18T11:25:58;-16261.94;;;-139.71;89.96
3598;BME280;1813;52.016;8.714;2023-02-18T11:28:40;-16261.94;;;-139.71;89.83
3598;BME280;1813;52.016;8.714;2023-02-18T11:31:24;-16261.94;;;-139.71;89.87
3598;BME280;1813;52.016;8.714;2023-02-18T11:34:00;-16261.94;;;-139.71;89.76
3598;BME280;1813;52.016;8.714;2023-02-18T11:36:35;-16261.94;;;-139.71;89.89
3598;BME280;1813;52.016;8.714;2023-02-18T11:39:17;-16261.94;;;-139.71;90.01
3598;BME280;1813;52.016;8.714;2023-02-18T11:41:56;-16261.94;;;-139.71;90.06
3598;BME280;1813;52.016;8.714;2023-02-18T11:44:32;-16261.94;;;-139.71;90.47
3598;BME280;1813;52.016;8.714;2023-02-18T11:47:21;-16261.94;;;-139.71;90.36
3598;BME280;1813;52.016;8.714;2023-02-18T11:52:51;-16261.94;;;-139.71;90.79
3598;BME280;1813;52.016;8.714;2023-02-18T11:55:31;-16261.94;;;-139.71;90.72
3598;BME280;1813;52.016;8.714;2023-02-18T11:58:09;-16261.94;;;-139.71;90.52
3598;BME280;1813;52.016;8.714;2023-02-18T12:00:47;-16261.94;;;-139.71;90.45
3598;BME280;1813;52.016;8.714;2023-02-18T12:03:32;-16261.94;;;-139.71;90.37
3598;BME280;1813;52.016;8.714;2023-02-18T12:06:16;-16261.94;;;-139.71;90.64
3598;BME280;1813;52.016;8.714;2023-02-18T12:08:57;-16261.94;;;-139.71;90.70
3598;BME280;1813;52.016;8.714;2023-02-18T12:11:35;-16261.94;;;-139.71;90.80
3598;BME280;1813;52.016;8.714;2023-02-18T12:14:16;-16261.94;;;-139.71;90.75
3598;BME280;1813;52.016;8.714;2023-02-18T12:17:14;-16261.94;;;-139.71;90.97
3598;BME280;1813;52.016;8.714;2023-02-18T12:23:17;-16261.94;;;-139.71;91.09
3598;BME280;1813;52.016;8.714;2023-02-18T12:25:59;-16261.94;;;-139.71;91.07
3598;BME280;1813;52.016;8.714;2023-02-18T12:28:47;-16261.94;;;-139.71;90.89
3598;BME280;1813;52.016;8.714;2023-02-18T12:32:02;-16261.94;;;-139.71;91.27
3598;BME280;1813;52.016;8.714;2023-02-18T12:34:46;-16261.94;;;-139.71;90.97
3598;BME280;1813;52.016;8.714;2023-02-18T12:37:52;-16261.94;;;-139.71;91.02
3598;BME280;1813;52.016;8.714;2023-02-18T12:40:50;-16261.94;;;-139.71;90.99
3598;BME280;1813;52.016;8.714;2023-02-18T12:43:36;-16261.94;;;-139.71;91.19
3598;BME280;1813;52.016;8.714;2023-02-18T12:46:25;-16261.94;;;-139.71;91.14
3598;BME280;1813;52.016;8.714;2023-02-18T12:49:20;-16261.94;;;-139.71;91.12
3598;BME280;1813;52.016;8.714;2023-02-18T12:52:07;-16261.94;;;-139.71;91.19
3598;BME280;1813;52.016;8.714;2023-02-18T12:55:07;-16261.94;;;-139.71;91.16
3598;BME280;1813;52.016;8.714;2023-02-18T12:57:53;-16261.94;;;-139.71;91.20
3598;BME280;1813;52.016;8.714;2023-02-18T13:00:49;-16261.94;;;-139.71;91.24
3598;BME280;1813;52.016;8.714;2023-02-18T13:07:02;-16261.94;;;-139.71;91.44
3598;BME280;1813;52.016;8.714;2023-02-18T13:09:58;-16261.94;;;-139.71;91.47
3598;BME280;1813;52.016;8.714;2023-02-18T13:12:39;-16261.94;;;-139.71;91.70
3598;BME280;1813;52.016;8.714;2023-02-18T13:15:18;-16261.94;;;-139.71;91.67
3598;BME280;1813;52.016;8.714;2023-02-18T13:17:56;-16261.94;;;-139.71;91.63
3598;BME280;1813;52.016;8.714;2023-02-18T13:20:36;-16261.94;;;-139.71;91.62
3598;BME280;1813;52.016;8.714;2023-02-18T13:23:17;-16261.94;;;-139.71;91.62
3598;BME280;1813;52.016;8.714;2023-02-18T13:25:57;-16261.94;;;-139.71;91.65
3598;BME280;1813;52.016;8.714;2023-02-18T13:28:39;-16261.94;;;-139.71;91.67
3598;BME280;1813;52.016;8.714;2023-02-18T13:31:26;-16261.94;;;-139.71;91.63
3598;BME280;1813;52.016;8.714;2023-02-18T13:34:07;-16261.94;;;-139.71;91.75
3598;BME280;1813;52.016;8.714;2023-02-18T13:36:53;-16261.94;;;-139.71;91.73
3598;BME280;1813;52.016;8.714;2023-02-18T13:39:29;-16261.94;;;-139.71;91.72
3598;BME280;1813;52.016;8.714;2023-02-18T13:42:32;-16261.94;;;-139.71;91.60
3598;BME280;1813;52.016;8.714;2023-02-18T13:48:21;-16261.94;;;-139.71;91.85
3598;BME280;1813;52.016;8.714;2023-02-18T13:51:01;-16261.94;;;-139.71;91.93
3598;BME280;1813;52.016;8.714;2023-02-18T13:53:36;-16261.94;;;-139.71;92.05
3598;BME280;1813;52.016;8.714;2023-02-18T13:56:20;-16261.94;;;-139.71;92.00
3598;BME280;1813;52.016;8.714;2023-02-18T13:59:08;-16261.94;;;-139.71;92.02
3598;BME280;1813;52.016;8.714;2023-02-18T14:01:45;-16261.94;;;-139.71;92.13
3598;BME280;1813;52.016;8.714;2023-02-18T14:04:36;-16261.94;;;-139.71;91.90
3598;BME280;1813;52.016;8.714;2023-02-18T14:07:31;-16261.94;;;-139.71;91.90
3598;BME280;1813;52.016;8.714;2023-02-18T14:10:30;-16261.94;;;-139.71;91.71
3598;BME280;1813;52.016;8.714;2023-02-18T14:13:22;-16261.94;;;-139.71;91.90